createdAt,value
2022-12-11T00:00:05.921Z,98967.09
2022-12-11T00:00:18.065Z,98968.81
2022-12-11T00:00:30.025Z,98975.63
2022-12-11T00:00:41.923Z,98974.75
2022-12-11T00:00:53.861Z,98970.50
2022-12-11T00:01:10.819Z,98967.13
2022-12-11T00:01:22.736Z,98979.09
2022-12-11T00:01:34.669Z,98979.97
2022-12-11T00:01:46.634Z,98977.38
2022-12-11T00:01:58.659Z,98970.56
2022-12-11T00:02:10.609Z,98975.69
2022-12-11T00:02:22.740Z,98979.13
2022-12-11T00:02:35.241Z,98977.44
2022-12-11T00:02:47.254Z,98979.13
2022-12-11T00:02:59.261Z,98976.56
2022-12-11T00:03:15.840Z,98979.13
2022-12-11T00:03:28.320Z,98975.72
2022-12-11T00:03:40.439Z,98977.44
2022-12-11T00:03:52.776Z,98975.75
2022-12-11T00:04:04.781Z,98978.28
2022-12-11T00:04:16.743Z,98979.13
2022-12-11T00:04:28.743Z,98977.41
2022-12-11T00:04:40.730Z,98978.25
2022-12-11T00:04:52.647Z,98968.88
2022-12-11T00:05:05.129Z,98973.97
2022-12-11T00:05:17.153Z,98977.38
2022-12-11T00:05:29.025Z,98972.28
2022-12-11T00:05:41.748Z,98970.56
2022-12-11T00:05:53.719Z,98981.66
2022-12-11T00:06:10.723Z,98974.84
2022-12-11T00:06:23.639Z,98983.38
2022-12-11T00:06:35.914Z,98976.56
2022-12-11T00:06:50.380Z,98980.81
2022-12-11T00:07:02.333Z,98985.91
2022-12-11T00:07:14.358Z,98976.56
2022-12-11T00:07:26.288Z,98977.41
2022-12-11T00:07:38.410Z,98982.53
2022-12-11T00:07:50.463Z,98981.66
2022-12-11T00:08:02.506Z,98980.78
2022-12-11T00:08:14.483Z,98980.78
2022-12-11T00:08:26.487Z,98973.97
2022-12-11T00:08:39.139Z,98979.94
2022-12-11T00:08:53.904Z,98979.06
2022-12-11T00:09:05.794Z,98977.38
2022-12-11T00:09:18.509Z,98976.53
2022-12-11T00:09:30.447Z,98972.25
2022-12-11T00:09:42.401Z,98972.25
2022-12-11T00:09:54.347Z,98973.09
2022-12-11T00:10:07.214Z,98967.97
2022-12-11T00:10:19.149Z,98976.50
2022-12-11T00:10:34.648Z,98973.94
2022-12-11T00:10:50.027Z,98972.22
2022-12-11T00:11:01.975Z,98973.06
2022-12-11T00:11:16.479Z,98972.25
2022-12-11T00:11:28.609Z,98968.00
2022-12-11T00:11:40.534Z,98968.84
2022-12-11T00:11:52.508Z,98968.88
2022-12-11T00:12:05.215Z,98976.53
2022-12-11T00:12:17.108Z,98975.69
2022-12-11T00:12:30.589Z,98971.41
2022-12-11T00:12:42.513Z,98979.06
2022-12-11T00:12:54.442Z,98967.13
2022-12-11T00:13:06.485Z,98969.66
2022-12-11T00:13:18.419Z,98966.25
2022-12-11T00:13:30.357Z,98968.81
2022-12-11T00:13:42.791Z,98967.09
2022-12-11T00:13:54.980Z,98975.66
2022-12-11T00:14:06.861Z,98974.78
2022-12-11T00:14:18.841Z,98969.66
2022-12-11T00:14:31.846Z,98973.91
2022-12-11T00:14:44.159Z,98968.81
2022-12-11T00:14:56.128Z,98970.53
2022-12-11T00:15:08.965Z,98974.75
2022-12-11T00:15:21.152Z,98971.38
2022-12-11T00:15:33.246Z,98972.25
2022-12-11T00:15:45.201Z,98975.69
2022-12-11T00:16:00.221Z,98970.56
2022-12-11T00:16:12.550Z,98970.59
2022-12-11T00:16:27.171Z,98976.53
2022-12-11T00:16:39.799Z,98972.28
2022-12-11T00:16:51.836Z,98972.28
2022-12-11T00:17:03.869Z,98973.09
2022-12-11T00:17:15.841Z,98966.25
2022-12-11T00:17:27.740Z,98967.97
2022-12-11T00:17:39.686Z,98963.69
2022-12-11T00:17:51.687Z,98962.84
2022-12-11T00:18:03.631Z,98963.69
2022-12-11T00:18:15.587Z,98963.72
2022-12-11T00:18:27.597Z,98962.03
2022-12-11T00:18:39.633Z,98967.13
2022-12-11T00:18:51.588Z,98967.13
2022-12-11T00:19:03.628Z,98965.41
2022-12-11T00:19:16.164Z,98963.72
2022-12-11T00:19:28.128Z,98968.84
2022-12-11T00:19:40.080Z,98962.00
2022-12-11T00:19:52.042Z,98961.16
2022-12-11T00:20:05.053Z,98972.28
2022-12-11T00:20:17.185Z,98973.94
2022-12-11T00:20:29.122Z,98966.28
2022-12-11T00:20:41.297Z,98966.28
2022-12-11T00:20:53.240Z,98967.16
2022-12-11T00:21:08.782Z,98966.31
2022-12-11T00:21:20.696Z,98968.84
2022-12-11T00:21:33.032Z,98966.28
2022-12-11T00:21:45.019Z,98963.78
2022-12-11T00:21:57.418Z,98969.72
2022-12-11T00:22:09.336Z,98969.72
2022-12-11T00:22:21.322Z,98968.88
2022-12-11T00:22:33.568Z,98968.00
2022-12-11T00:22:45.552Z,98967.16
2022-12-11T00:22:57.496Z,98962.06
2022-12-11T00:23:10.796Z,98964.63
2022-12-11T00:23:22.783Z,98965.47
2022-12-11T00:23:36.466Z,98966.31
2022-12-11T00:23:48.390Z,98969.72
2022-12-11T00:24:00.683Z,98965.44
2022-12-11T00:24:12.829Z,98957.75
2022-12-11T00:24:24.969Z,98963.75
2022-12-11T00:24:36.897Z,98961.16
2022-12-11T00:24:48.826Z,98960.31
2022-12-11T00:25:00.749Z,98960.31
2022-12-11T00:25:12.940Z,98960.31
2022-12-11T00:25:24.987Z,98957.75
2022-12-11T00:25:44.116Z,98956.94
2022-12-11T00:25:56.781Z,98962.06
2022-12-11T00:26:11.965Z,98965.47
2022-12-11T00:26:24.003Z,98957.78
2022-12-11T00:26:35.939Z,98960.31
2022-12-11T00:26:47.882Z,98966.31
2022-12-11T00:26:59.882Z,98960.34
2022-12-11T00:27:11.813Z,98959.47
2022-12-11T00:27:24.157Z,98968.00
2022-12-11T00:27:36.235Z,98959.47
2022-12-11T00:27:48.269Z,98963.72
2022-12-11T00:28:00.173Z,98968.88
2022-12-11T00:28:18.811Z,98965.47
2022-12-11T00:28:30.752Z,98959.50
2022-12-11T00:28:43.752Z,98960.34
2022-12-11T00:28:57.040Z,98961.19
2022-12-11T00:29:14.273Z,98960.34
2022-12-11T00:29:26.203Z,98963.75
2022-12-11T00:29:38.099Z,98958.63
2022-12-11T00:29:50.082Z,98969.72
2022-12-11T00:30:02.058Z,98963.78
2022-12-11T00:30:14.496Z,98964.59
2022-12-11T00:30:26.394Z,98960.31
2022-12-11T00:30:40.623Z,98961.19
2022-12-11T00:30:52.645Z,98962.91
2022-12-11T00:31:06.593Z,98965.47
2022-12-11T00:31:19.301Z,98963.78
2022-12-11T00:31:31.545Z,98967.19
2022-12-11T00:31:44.528Z,98963.81
2022-12-11T00:31:56.608Z,98969.78
2022-12-11T00:32:08.828Z,98962.09
2022-12-11T00:32:20.932Z,98963.81
2022-12-11T00:32:37.436Z,98961.22
2022-12-11T00:32:51.784Z,98965.50
2022-12-11T00:33:03.702Z,98962.94
2022-12-11T00:33:16.507Z,98968.88
2022-12-11T00:33:28.390Z,98968.91
2022-12-11T00:33:40.435Z,98971.44
2022-12-11T00:33:52.817Z,98962.06
2022-12-11T00:34:04.754Z,98962.06
2022-12-11T00:34:17.203Z,98960.34
2022-12-11T00:34:29.169Z,98956.09
2022-12-11T00:34:41.125Z,98959.50
2022-12-11T00:34:53.444Z,98955.22
2022-12-11T00:35:05.659Z,98962.03
2022-12-11T00:35:17.680Z,98952.66
2022-12-11T00:35:29.866Z,98956.94
2022-12-11T00:35:44.734Z,98960.34
2022-12-11T00:35:56.739Z,98956.91
2022-12-11T00:36:24.389Z,98963.72
2022-12-11T00:36:36.307Z,98955.22
2022-12-11T00:36:48.235Z,98956.06
2022-12-11T00:37:00.224Z,98956.91
2022-12-11T00:37:12.292Z,98955.19
2022-12-11T00:37:24.527Z,98957.75
2022-12-11T00:37:36.652Z,98958.63
2022-12-11T00:37:48.642Z,98962.88
2022-12-11T00:38:00.551Z,98959.47
2022-12-11T00:38:20.961Z,98962.03
2022-12-11T00:38:32.847Z,98965.41
2022-12-11T00:38:44.803Z,98954.34
2022-12-11T00:38:56.922Z,98963.72
2022-12-11T00:39:08.878Z,98962.84
2022-12-11T00:39:20.801Z,98967.97
2022-12-11T00:39:32.753Z,98962.88
2022-12-11T00:39:45.473Z,98963.72
2022-12-11T00:39:57.431Z,98967.13
2022-12-11T00:40:10.079Z,98960.28
2022-12-11T00:40:22.027Z,98966.28
2022-12-11T00:40:37.291Z,98961.13
2022-12-11T00:40:49.193Z,98962.00
2022-12-11T00:41:01.149Z,98967.09
2022-12-11T00:41:13.067Z,98962.81
2022-12-11T00:41:25.372Z,98959.41
2022-12-11T00:41:37.280Z,98960.28
2022-12-11T00:41:49.215Z,98960.25
2022-12-11T00:42:01.193Z,98970.47
2022-12-11T00:42:13.190Z,98955.13
2022-12-11T00:42:25.131Z,98963.66
2022-12-11T00:42:37.064Z,98958.56
2022-12-11T00:42:49.035Z,98956.03
2022-12-11T00:43:01.292Z,98956.88
2022-12-11T00:43:14.402Z,98956.00
2022-12-11T00:43:26.304Z,98958.59
2022-12-11T00:43:38.679Z,98957.72
2022-12-11T00:43:50.838Z,98955.16
2022-12-11T00:44:02.886Z,98958.56
2022-12-11T00:44:14.886Z,98958.53
2022-12-11T00:44:26.790Z,98961.09
2022-12-11T00:44:38.679Z,98958.53
2022-12-11T00:44:50.857Z,98957.66
2022-12-11T00:45:03.533Z,98953.38
2022-12-11T00:45:15.724Z,98956.81
2022-12-11T00:45:27.693Z,98957.66
2022-12-11T00:45:43.333Z,98963.63
2022-12-11T00:45:55.288Z,98963.59
2022-12-11T00:46:07.414Z,98961.88
2022-12-11T00:46:19.453Z,98962.75
2022-12-11T00:46:31.507Z,98955.91
2022-12-11T00:46:43.467Z,98961.03
2022-12-11T00:46:55.445Z,98962.75
2022-12-11T00:47:08.432Z,98958.47
2022-12-11T00:47:20.323Z,98960.16
2022-12-11T00:47:32.388Z,98962.72
2022-12-11T00:47:44.333Z,98963.59
2022-12-11T00:47:56.227Z,98961.88
2022-12-11T00:48:08.957Z,98958.47
2022-12-11T00:48:21.066Z,98963.59
2022-12-11T00:48:33.474Z,98955.91
2022-12-11T00:48:46.280Z,98963.56
2022-12-11T00:48:58.383Z,98960.16
2022-12-11T00:49:10.357Z,98957.59
2022-12-11T00:49:22.251Z,98963.59
2022-12-11T00:49:34.226Z,98956.78
2022-12-11T00:49:49.803Z,98961.00
2022-12-11T00:50:02.541Z,98955.03
2022-12-11T00:50:14.604Z,98955.91
2022-12-11T00:50:26.505Z,98958.50
2022-12-11T00:50:39.201Z,98958.47
2022-12-11T00:50:51.079Z,98963.59
2022-12-11T00:51:03.115Z,98958.47
2022-12-11T00:51:15.424Z,98961.88
2022-12-11T00:51:27.433Z,98963.63
2022-12-11T00:51:39.357Z,98961.09
2022-12-11T00:51:51.346Z,98959.38
2022-12-11T00:52:03.412Z,98955.91
2022-12-11T00:52:17.623Z,98958.47
2022-12-11T00:52:29.901Z,98967.00
2022-12-11T00:52:41.842Z,98963.56
2022-12-11T00:52:53.774Z,98966.97
2022-12-11T00:53:06.806Z,98961.84
2022-12-11T00:53:18.784Z,98968.66
2022-12-11T00:53:30.712Z,98960.97
2022-12-11T00:53:42.800Z,98966.09
2022-12-11T00:53:54.782Z,98955.03
2022-12-11T00:54:06.714Z,98962.69
2022-12-11T00:54:18.798Z,98960.13
2022-12-11T00:54:30.744Z,98964.38
2022-12-11T00:54:42.646Z,98963.53
2022-12-11T00:54:54.590Z,98960.97
2022-12-11T00:55:06.912Z,98965.25
2022-12-11T00:55:18.838Z,98966.97
2022-12-11T00:55:30.776Z,98963.53
2022-12-11T00:55:43.462Z,98966.13
2022-12-11T00:55:55.373Z,98967.84
2022-12-11T00:56:19.265Z,98963.59
2022-12-11T00:56:31.188Z,98960.16
2022-12-11T00:56:43.219Z,98961.84
2022-12-11T00:56:55.886Z,98968.69
2022-12-11T00:57:07.776Z,98960.13
2022-12-11T00:57:29.871Z,98964.41
2022-12-11T00:57:41.768Z,98961.88
2022-12-11T00:57:54.017Z,98963.59
2022-12-11T00:58:06.410Z,98961.88
2022-12-11T00:58:18.479Z,98961.88
2022-12-11T00:58:30.406Z,98960.16
2022-12-11T00:58:42.512Z,98955.91
2022-12-11T00:58:54.526Z,98960.13
2022-12-11T00:59:06.552Z,98958.41
2022-12-11T00:59:18.489Z,98953.31
2022-12-11T00:59:30.445Z,98960.94
2022-12-11T00:59:42.342Z,98960.94
2022-12-11T00:59:54.231Z,98956.75
2022-12-11T01:00:07.071Z,98962.69
2022-12-11T01:00:19.384Z,98959.28
2022-12-11T01:00:31.448Z,98967.00
2022-12-11T01:00:44.315Z,98961.00
2022-12-11T01:01:05.724Z,98962.69
2022-12-11T01:01:21.099Z,98966.94
2022-12-11T01:01:33.379Z,98969.50
2022-12-11T01:01:45.383Z,98965.22
2022-12-11T01:01:57.326Z,98971.19
2022-12-11T01:02:09.254Z,98965.19
2022-12-11T01:02:21.470Z,98962.66
2022-12-11T01:02:34.314Z,98962.66
2022-12-11T01:02:46.421Z,98968.63
2022-12-11T01:02:58.429Z,98965.19
2022-12-11T01:03:13.177Z,98966.06
2022-12-11T01:03:25.146Z,98966.06
2022-12-11T01:03:37.723Z,98962.63
2022-12-11T01:03:50.073Z,98970.31
2022-12-11T01:04:02.013Z,98972.88
2022-12-11T01:04:13.933Z,98966.03
2022-12-11T01:04:25.852Z,98968.59
2022-12-11T01:04:37.792Z,98971.16
2022-12-11T01:04:49.818Z,98966.03
2022-12-11T01:05:01.747Z,98966.03
2022-12-11T01:05:13.735Z,98972.03
2022-12-11T01:05:25.730Z,98975.44
2022-12-11T01:05:37.735Z,98970.34
2022-12-11T01:05:54.479Z,98970.34
2022-12-11T01:06:07.378Z,98977.22
2022-12-11T01:06:23.023Z,98973.81
2022-12-11T01:06:35.317Z,98972.09
2022-12-11T01:06:47.217Z,98969.53
2022-12-11T01:06:59.128Z,98967.84
2022-12-11T01:07:11.070Z,98964.41
2022-12-11T01:07:23.072Z,98972.94
2022-12-11T01:07:34.983Z,98970.38
2022-12-11T01:07:46.988Z,98968.69
2022-12-11T01:07:59.093Z,98963.56
2022-12-11T01:08:11.026Z,98970.38
2022-12-11T01:08:23.074Z,98963.56
2022-12-11T01:08:38.505Z,98967.81
2022-12-11T01:09:13.987Z,98973.81
2022-12-11T01:10:04.170Z,98971.25
2022-12-11T01:10:25.509Z,98970.41
2022-12-11T01:10:37.590Z,98974.69
2022-12-11T01:10:49.544Z,98970.41
2022-12-11T01:11:06.683Z,98973.84
2022-12-11T01:11:18.631Z,98972.13
2022-12-11T01:11:30.548Z,98981.53
2022-12-11T01:11:43.335Z,98967.06
2022-12-11T01:11:55.234Z,98977.28
2022-12-11T01:12:07.209Z,98971.31
2022-12-11T01:12:19.155Z,98972.19
2022-12-11T01:12:31.088Z,98973.03
2022-12-11T01:12:42.966Z,98981.53
2022-12-11T01:13:13.825Z,98975.59
2022-12-11T01:13:25.738Z,98979.00
2022-12-11T01:13:39.095Z,98977.28
2022-12-11T01:13:51.027Z,98984.09
2022-12-11T01:14:03.479Z,98978.16
2022-12-11T01:14:15.444Z,98977.31
2022-12-11T01:14:27.921Z,98980.72
2022-12-11T01:14:39.860Z,98975.63
2022-12-11T01:14:51.846Z,98973.94
2022-12-11T01:15:04.028Z,98972.22
2022-12-11T01:15:16.070Z,98977.31
2022-12-11T01:15:31.858Z,98972.22
2022-12-11T01:15:45.336Z,98975.59
2022-12-11T01:15:57.338Z,98978.16
2022-12-11T01:16:12.149Z,98979.03
2022-12-11T01:16:24.158Z,98983.28
2022-12-11T01:16:36.523Z,98977.31
2022-12-11T01:16:48.480Z,98980.72
2022-12-11T01:17:00.478Z,98977.31
2022-12-11T01:17:12.437Z,98977.31
2022-12-11T01:17:24.448Z,98982.41
2022-12-11T01:17:36.335Z,98977.28
2022-12-11T01:17:48.920Z,98979.00
2022-12-11T01:18:00.888Z,98977.28
2022-12-11T01:18:15.322Z,98978.16
2022-12-11T01:18:27.292Z,98975.56
2022-12-11T01:18:39.515Z,98975.56
2022-12-11T01:18:51.447Z,98977.28
2022-12-11T01:19:03.881Z,98969.59
2022-12-11T01:19:15.983Z,98973.91
2022-12-11T01:19:28.518Z,98971.34
2022-12-11T01:19:40.501Z,98973.91
2022-12-11T01:19:55.572Z,98976.44
2022-12-11T01:20:08.094Z,98976.44
2022-12-11T01:20:21.512Z,98973.91
2022-12-11T01:20:33.505Z,98975.63
2022-12-11T01:20:45.463Z,98979.00
2022-12-11T01:20:57.362Z,98978.16
2022-12-11T01:21:12.405Z,98977.38
2022-12-11T01:21:24.687Z,98975.66
2022-12-11T01:21:36.609Z,98978.22
2022-12-11T01:21:48.540Z,98981.66
2022-12-11T01:22:00.484Z,98982.50
2022-12-11T01:22:12.378Z,98980.78
2022-12-11T01:22:24.251Z,98988.47
2022-12-11T01:22:36.123Z,98975.69
2022-12-11T01:22:48.308Z,98976.53
2022-12-11T01:23:00.984Z,98977.41
2022-12-11T01:23:13.794Z,98980.78
2022-12-11T01:23:25.719Z,98973.13
2022-12-11T01:23:38.328Z,98986.75
2022-12-11T01:23:51.416Z,98987.63
2022-12-11T01:24:03.541Z,98979.97
2022-12-11T01:24:15.490Z,98976.56
2022-12-11T01:24:27.386Z,98975.72
2022-12-11T01:24:39.322Z,98977.41
2022-12-11T01:24:51.243Z,98983.38
2022-12-11T01:25:04.067Z,98982.53
2022-12-11T01:25:16.954Z,98980.81
2022-12-11T01:25:29.190Z,98982.53
2022-12-11T01:25:42.041Z,98977.38
2022-12-11T01:25:53.983Z,98979.94
2022-12-11T01:26:11.479Z,98977.38
2022-12-11T01:26:23.505Z,98985.91
2022-12-11T01:26:35.974Z,98982.50
2022-12-11T01:26:47.903Z,98984.22
2022-12-11T01:26:59.836Z,98984.22
2022-12-11T01:27:11.839Z,98981.66
2022-12-11T01:27:23.754Z,98983.34
2022-12-11T01:27:36.234Z,98973.97
2022-12-11T01:27:51.616Z,98974.81
2022-12-11T01:28:04.390Z,98980.78
2022-12-11T01:28:16.291Z,98988.47
2022-12-11T01:28:28.171Z,98976.53
2022-12-11T01:28:42.762Z,98979.94
2022-12-11T01:28:54.694Z,98972.25
2022-12-11T01:29:06.580Z,98979.06
2022-12-11T01:29:18.578Z,98970.50
2022-12-11T01:29:30.776Z,98974.78
2022-12-11T01:29:42.662Z,98977.34
2022-12-11T01:29:54.574Z,98977.38
2022-12-11T01:30:08.129Z,98980.78
2022-12-11T01:30:21.834Z,98973.97
2022-12-11T01:30:34.286Z,98975.66
2022-12-11T01:30:46.295Z,98973.97
2022-12-11T01:30:58.377Z,98976.56
2022-12-11T01:31:13.081Z,98974.00
2022-12-11T01:31:25.106Z,98980.81
2022-12-11T01:31:38.309Z,98978.25
2022-12-11T01:31:50.189Z,98979.13
2022-12-11T01:32:02.105Z,98979.97
2022-12-11T01:32:14.011Z,98977.41
2022-12-11T01:32:27.598Z,98982.53
2022-12-11T01:32:39.561Z,98980.84
2022-12-11T01:32:52.165Z,98985.94
2022-12-11T01:33:04.322Z,98983.38
2022-12-11T01:33:16.244Z,98981.66
2022-12-11T01:33:28.990Z,98980.84
2022-12-11T01:33:41.401Z,98981.69
2022-12-11T01:33:56.557Z,98979.97
2022-12-11T01:34:08.465Z,98985.91
2022-12-11T01:34:20.648Z,98976.56
2022-12-11T01:34:33.344Z,98978.25
2022-12-11T01:34:45.237Z,98981.66
2022-12-11T01:34:57.252Z,98980.81
2022-12-11T01:35:10.919Z,98975.69
2022-12-11T01:35:23.329Z,98979.13
2022-12-11T01:35:35.299Z,98985.94
2022-12-11T01:35:47.181Z,98979.13
2022-12-11T01:35:59.422Z,98980.81
2022-12-11T01:36:15.154Z,98980.81
2022-12-11T01:36:27.107Z,98981.66
2022-12-11T01:36:39.026Z,98979.09
2022-12-11T01:36:52.229Z,98979.97
2022-12-11T01:37:04.145Z,98979.13
2022-12-11T01:37:16.106Z,98979.09
2022-12-11T01:37:28.004Z,98983.38
2022-12-11T01:37:40.221Z,98984.22
2022-12-11T01:37:52.146Z,98985.06
2022-12-11T01:38:04.067Z,98989.31
2022-12-11T01:38:15.944Z,98979.94
2022-12-11T01:38:27.851Z,98989.28
2022-12-11T01:38:40.033Z,98979.94
2022-12-11T01:38:54.262Z,98974.78
2022-12-11T01:39:06.219Z,98981.66
2022-12-11T01:39:18.107Z,98979.94
2022-12-11T01:39:30.044Z,98980.78
2022-12-11T01:39:41.959Z,98982.50
2022-12-11T01:39:53.846Z,98987.63
2022-12-11T01:40:07.866Z,98984.22
2022-12-11T01:40:21.146Z,98985.06
2022-12-11T01:40:33.038Z,98979.94
2022-12-11T01:40:49.549Z,98980.75
2022-12-11T01:41:01.509Z,98979.06
2022-12-11T01:41:14.141Z,98977.34
2022-12-11T01:41:26.147Z,98982.44
2022-12-11T01:41:38.165Z,98982.44
2022-12-11T01:41:50.337Z,98977.34
2022-12-11T01:42:02.349Z,98976.50
2022-12-11T01:42:23.099Z,98979.06
2022-12-11T01:42:35.694Z,98984.19
2022-12-11T01:42:47.857Z,98984.22
2022-12-11T01:42:59.781Z,98984.19
2022-12-11T01:43:11.687Z,98979.94
2022-12-11T01:43:23.655Z,98985.91
2022-12-11T01:43:55.341Z,98984.22
2022-12-11T01:44:27.248Z,98991.84
2022-12-11T01:44:39.177Z,98992.72
2022-12-11T01:44:51.093Z,98994.41
2022-12-11T01:45:21.511Z,98989.34
2022-12-11T01:45:44.587Z,98988.47
2022-12-11T01:45:56.610Z,98986.78
2022-12-11T01:46:08.579Z,98983.38
2022-12-11T01:46:20.544Z,98987.66
2022-12-11T01:46:35.053Z,98989.34
2022-12-11T01:46:46.951Z,98982.53
2022-12-11T01:46:58.849Z,98987.63
2022-12-11T01:47:11.291Z,98991.03
2022-12-11T01:47:23.228Z,98989.34
2022-12-11T01:47:35.191Z,98990.19
2022-12-11T01:47:48.599Z,98988.47
2022-12-11T01:48:10.679Z,98990.19
2022-12-11T01:48:25.569Z,98996.16
2022-12-11T01:48:42.174Z,98981.69
2022-12-11T01:48:55.189Z,98991.88
2022-12-11T01:49:14.049Z,98988.50
2022-12-11T01:49:27.430Z,98989.31
2022-12-11T01:49:40.998Z,98991.03
2022-12-11T01:49:52.901Z,98985.06
2022-12-11T01:50:05.311Z,98987.59
2022-12-11T01:50:18.610Z,98985.06
2022-12-11T01:50:34.092Z,98991.00
2022-12-11T01:50:50.716Z,98986.78
2022-12-11T01:51:05.172Z,98991.03
2022-12-11T01:51:17.542Z,98985.06
2022-12-11T01:51:33.277Z,98985.03
2022-12-11T01:51:53.234Z,98981.63
2022-12-11T01:52:15.272Z,98985.03
2022-12-11T01:52:27.289Z,98983.28
2022-12-11T01:52:40.026Z,98983.31
2022-12-11T01:52:52.373Z,98979.91
2022-12-11T01:53:08.101Z,98982.47
2022-12-11T01:53:25.189Z,98988.38
2022-12-11T01:53:41.647Z,98988.41
2022-12-11T01:54:01.858Z,98989.22
2022-12-11T01:54:17.277Z,98989.22
2022-12-11T01:54:30.369Z,98991.00
2022-12-11T01:54:43.490Z,98985.88
2022-12-11T01:54:55.563Z,98985.91
2022-12-11T01:55:09.547Z,98985.88
2022-12-11T01:55:22.107Z,98987.59
2022-12-11T01:55:34.528Z,98981.66
2022-12-11T01:55:48.344Z,98988.44
2022-12-11T01:56:01.122Z,98982.50
2022-12-11T01:56:13.136Z,98988.44
2022-12-11T01:56:25.120Z,98987.59
2022-12-11T01:56:38.000Z,98988.44
2022-12-11T01:56:53.135Z,98989.28
2022-12-11T01:57:08.459Z,98988.47
2022-12-11T01:57:20.396Z,98984.19
2022-12-11T01:57:32.400Z,98989.31
2022-12-11T01:57:47.315Z,98991.00
2022-12-11T01:57:59.321Z,98996.13
2022-12-11T01:58:13.070Z,98987.63
2022-12-11T01:58:32.118Z,98992.72
2022-12-11T01:58:51.463Z,98997.00
2022-12-11T01:59:07.418Z,98989.31
2022-12-11T01:59:23.885Z,98992.75
2022-12-11T01:59:39.879Z,98988.47
2022-12-11T01:59:51.919Z,98985.91
2022-12-11T02:00:05.111Z,98986.75
2022-12-11T02:00:17.432Z,98995.25
2022-12-11T02:00:29.396Z,98987.63
2022-12-11T02:00:41.328Z,98996.13
2022-12-11T02:00:54.580Z,98991.88
2022-12-11T02:01:06.571Z,98997.81
2022-12-11T02:01:36.826Z,98990.13
2022-12-11T02:02:04.644Z,98988.44
2022-12-11T02:02:22.385Z,98985.00
2022-12-11T02:02:34.332Z,98987.56
2022-12-11T02:02:46.386Z,98985.00
2022-12-11T02:02:58.384Z,98992.66
2022-12-11T02:03:10.307Z,98996.94
2022-12-11T02:03:22.801Z,98990.94
2022-12-11T02:03:34.743Z,98993.50
2022-12-11T02:03:46.739Z,98993.50
2022-12-11T02:03:59.565Z,98989.22
2022-12-11T02:04:12.221Z,98991.78
2022-12-11T02:04:24.559Z,98991.78
2022-12-11T02:04:38.952Z,98999.47
2022-12-11T02:04:50.924Z,98992.63
2022-12-11T02:05:05.613Z,98994.34
2022-12-11T02:05:17.634Z,99001.16
2022-12-11T02:05:29.669Z,98991.75
2022-12-11T02:05:41.894Z,99000.31
2022-12-11T02:05:53.839Z,98994.31
2022-12-11T02:06:05.982Z,98998.56
2022-12-11T02:06:51.929Z,98996.03
2022-12-11T02:07:04.143Z,98993.47
2022-12-11T02:07:16.215Z,98997.72
2022-12-11T02:07:31.614Z,99003.72
2022-12-11T02:07:48.219Z,98996.03
2022-12-11T02:08:02.967Z,99001.97
2022-12-11T02:08:15.833Z,98997.69
2022-12-11T02:08:28.254Z,99002.81
2022-12-11T02:08:40.195Z,98997.69
2022-12-11T02:08:52.062Z,99002.81
2022-12-11T02:09:07.662Z,99005.41
2022-12-11T02:09:25.210Z,98998.56
2022-12-11T02:09:40.053Z,98997.72
2022-12-11T02:09:52.064Z,98996.03
2022-12-11T02:10:04.867Z,98994.31
2022-12-11T02:10:17.433Z,98997.72
2022-12-11T02:10:48.233Z,98996.00
2022-12-11T02:11:10.663Z,98999.41
2022-12-11T02:11:28.359Z,99001.09
2022-12-11T02:11:58.840Z,99004.53
2022-12-11T02:12:26.382Z,98998.53
2022-12-11T02:12:57.519Z,99000.25
2022-12-11T02:13:17.840Z,99005.41
2022-12-11T02:13:47.961Z,99005.41
2022-12-11T02:14:12.881Z,98994.28
2022-12-11T02:14:37.510Z,99001.13
2022-12-11T02:15:14.112Z,99000.25
2022-12-11T02:15:35.706Z,98996.84
2022-12-11T02:15:56.791Z,98996.81
2022-12-11T02:16:53.496Z,99001.97
2022-12-11T02:17:14.288Z,99001.94
2022-12-11T02:17:35.736Z,99006.19
2022-12-11T02:18:02.791Z,99001.94
2022-12-11T02:18:14.718Z,99001.13
2022-12-11T02:18:42.163Z,98997.69
2022-12-11T02:19:02.943Z,98999.41
2022-12-11T02:19:38.893Z,98998.56
2022-12-11T02:20:15.386Z,99000.22
2022-12-11T02:21:11.818Z,98996.81
2022-12-11T02:21:27.997Z,98998.53
2022-12-11T02:21:50.698Z,98997.69
2022-12-11T02:22:08.835Z,98991.69
2022-12-11T02:23:05.106Z,98989.16
2022-12-11T02:23:26.311Z,98999.44
2022-12-11T02:24:00.264Z,98992.63
2022-12-11T02:24:45.226Z,98995.19
2022-12-11T02:24:59.974Z,98994.28
2022-12-11T02:25:25.615Z,98990.06
2022-12-11T02:26:10.638Z,98988.34
2022-12-11T02:26:45.595Z,98990.03
2022-12-11T02:27:15.837Z,98991.75
2022-12-11T02:27:44.802Z,98993.44
2022-12-11T02:28:14.720Z,98992.56
2022-12-11T02:28:43.214Z,98990.91
2022-12-11T02:29:01.105Z,98996.00
2022-12-11T02:29:20.681Z,98994.31
2022-12-11T02:29:38.977Z,98994.31
2022-12-11T02:30:05.994Z,98997.72
2022-12-11T02:30:18.088Z,98994.34
2022-12-11T02:30:31.312Z,98987.50
2022-12-11T02:30:50.167Z,98998.59
2022-12-11T02:32:00.381Z,98999.44
2022-12-11T02:32:23.124Z,98997.78
2022-12-11T02:32:55.305Z,98996.03
2022-12-11T02:33:09.552Z,98998.59
2022-12-11T02:33:26.601Z,98996.00
2022-12-11T02:33:47.081Z,98990.91
2022-12-11T02:34:08.822Z,98994.31
2022-12-11T02:34:29.126Z,98996.00
2022-12-11T02:34:49.310Z,98989.19
2022-12-11T02:35:12.687Z,98992.63
2022-12-11T02:35:24.783Z,98992.59
2022-12-11T02:35:42.471Z,98990.88
2022-12-11T02:35:54.906Z,98990.91
2022-12-11T02:36:09.770Z,98990.91
2022-12-11T02:36:25.361Z,98996.00
2022-12-11T02:36:41.670Z,98989.19
2022-12-11T02:37:00.520Z,98988.34
2022-12-11T02:37:21.382Z,98990.91
2022-12-11T02:37:37.346Z,98991.72
2022-12-11T02:37:57.959Z,98989.19
2022-12-11T02:38:19.662Z,98993.44
2022-12-11T02:38:36.951Z,98989.19
2022-12-11T02:38:53.135Z,98989.22
2022-12-11T02:39:07.453Z,98990.94
2022-12-11T02:39:22.397Z,98990.97
2022-12-11T02:39:38.708Z,98991.81
2022-12-11T02:39:53.977Z,98992.66
2022-12-11T02:40:10.941Z,98991.81
2022-12-11T02:40:26.635Z,98991.81
2022-12-11T02:40:41.216Z,98990.94
2022-12-11T02:40:56.270Z,98986.69
2022-12-11T02:41:10.532Z,98993.53
2022-12-11T02:41:24.120Z,98979.03
2022-12-11T02:41:36.755Z,98990.97
2022-12-11T02:41:50.764Z,98985.84
2022-12-11T02:42:04.740Z,98991.78
2022-12-11T02:42:19.560Z,98985.81
2022-12-11T02:42:33.165Z,98980.72
2022-12-11T02:42:48.122Z,98987.50
2022-12-11T02:43:04.656Z,98988.34
2022-12-11T02:43:18.136Z,98986.66
2022-12-11T02:43:32.268Z,98979.03
2022-12-11T02:43:45.477Z,98984.13
2022-12-11T02:43:59.114Z,98984.13
2022-12-11T02:44:14.534Z,98983.25
2022-12-11T02:44:30.372Z,98984.13
2022-12-11T02:44:44.492Z,98980.69
2022-12-11T02:44:59.080Z,98980.69
2022-12-11T02:45:13.312Z,98982.41
2022-12-11T02:45:27.225Z,98980.72
2022-12-11T02:45:41.481Z,98978.22
2022-12-11T02:45:54.187Z,98973.09
2022-12-11T02:46:07.956Z,98984.16
2022-12-11T02:46:21.722Z,98973.91
2022-12-11T02:46:35.547Z,98979.00
2022-12-11T02:46:47.612Z,98977.31
2022-12-11T02:47:00.587Z,98974.78
2022-12-11T02:47:16.691Z,98973.94
2022-12-11T02:47:32.031Z,98968.81
2022-12-11T02:47:47.674Z,98973.94
2022-12-11T02:48:02.858Z,98973.06
2022-12-11T02:48:17.230Z,98967.16
2022-12-11T02:48:30.242Z,98975.66
2022-12-11T02:48:44.118Z,98971.38
2022-12-11T02:48:57.759Z,98970.53
2022-12-11T02:49:11.690Z,98970.56